createdAt,value
2024-05-09T00:00:39.176Z,121.41
2024-05-09T00:01:35.275Z,121.49
2024-05-09T00:02:34.265Z,121.59
2024-05-09T00:03:34.363Z,121.08
2024-05-09T00:04:34.285Z,121.45
2024-05-09T00:05:34.555Z,121.92
2024-05-09T00:06:34.309Z,122.72
2024-05-09T00:07:34.410Z,121.04
2024-05-09T00:08:34.418Z,120.95
2024-05-09T00:09:34.386Z,120.56
2024-05-09T00:10:37.448Z,120.30
2024-05-09T00:11:34.593Z,120.35
2024-05-09T00:12:34.466Z,120.38
2024-05-09T00:13:34.484Z,120.50
2024-05-09T00:14:34.552Z,121.15
2024-05-09T00:15:35.111Z,120.84
2024-05-09T00:16:34.563Z,120.77
2024-05-09T00:17:34.660Z,120.16
2024-05-09T00:18:34.676Z,120.16
2024-05-09T00:19:34.664Z,119.93
2024-05-09T00:20:38.794Z,120.09
2024-05-09T00:21:35.699Z,120.13
2024-05-09T00:22:34.710Z,120.12
2024-05-09T00:23:34.767Z,120.18
2024-05-09T00:24:34.763Z,120.01
2024-05-09T00:25:35.302Z,120.41
2024-05-09T00:26:34.884Z,119.89
2024-05-09T00:27:34.857Z,119.43
2024-05-09T00:28:34.855Z,119.86
2024-05-09T00:29:34.909Z,120.25
2024-05-09T00:30:36.753Z,119.81
2024-05-09T00:31:35.069Z,119.27
2024-05-09T00:32:35.263Z,118.75
2024-05-09T00:33:35.268Z,119.39
2024-05-09T00:34:35.195Z,119.51
2024-05-09T00:35:35.384Z,119.12
2024-05-09T00:36:35.231Z,118.88
2024-05-09T00:37:35.249Z,118.27
2024-05-09T00:38:35.454Z,119.34
2024-05-09T00:39:35.321Z,119.35
2024-05-09T00:40:39.604Z,119.46
2024-05-09T00:41:36.438Z,119.39
2024-05-09T00:42:35.399Z,119.55
2024-05-09T00:43:35.414Z,119.50
2024-05-09T00:44:35.566Z,119.81
2024-05-09T00:45:35.503Z,120.11
2024-05-09T00:46:35.499Z,118.54
2024-05-09T00:47:35.599Z,118.71
2024-05-09T00:48:35.661Z,118.29
2024-05-09T00:49:35.693Z,118.51
2024-05-09T00:50:37.365Z,118.55
2024-05-09T00:51:35.716Z,118.72
2024-05-09T00:52:35.795Z,118.85
2024-05-09T00:53:35.939Z,119.11
2024-05-09T00:54:35.956Z,118.09
2024-05-09T00:55:36.009Z,118.49
2024-05-09T00:56:36.062Z,118.45
2024-05-09T00:57:36.057Z,118.00
2024-05-09T00:58:36.100Z,118.52
2024-05-09T00:59:36.213Z,117.76
2024-05-09T01:00:39.798Z,118.09
2024-05-09T01:01:37.244Z,117.59
2024-05-09T01:02:36.266Z,117.68
2024-05-09T01:03:36.361Z,117.65
2024-05-09T01:04:36.323Z,117.89
2024-05-09T01:05:36.310Z,117.19
2024-05-09T01:06:36.327Z,117.86
2024-05-09T01:07:36.334Z,117.58
2024-05-09T01:08:36.499Z,117.09
2024-05-09T01:09:36.377Z,117.51
2024-05-09T01:10:36.833Z,117.23
2024-05-09T01:11:36.597Z,116.85
2024-05-09T01:12:36.523Z,116.95
2024-05-09T01:13:36.467Z,116.79
2024-05-09T01:14:36.571Z,116.42
2024-05-09T01:15:36.530Z,117.18
2024-05-09T01:16:36.554Z,116.13
2024-05-09T01:17:36.729Z,116.77
2024-05-09T01:18:36.668Z,117.75
2024-05-09T01:19:36.732Z,117.10
2024-05-09T01:20:41.760Z,115.53
2024-05-09T01:21:37.687Z,115.61
2024-05-09T01:22:36.692Z,115.61
2024-05-09T01:23:36.796Z,115.81
2024-05-09T01:24:36.742Z,116.41
2024-05-09T01:25:36.781Z,115.96
2024-05-09T01:26:36.813Z,116.53
2024-05-09T01:27:36.805Z,115.83
2024-05-09T01:28:36.837Z,115.83
2024-05-09T01:29:36.893Z,115.88
2024-05-09T01:30:37.873Z,115.68
2024-05-09T01:31:36.937Z,115.72
2024-05-09T01:32:37.026Z,114.98
2024-05-09T01:33:37.365Z,115.35
2024-05-09T01:34:36.977Z,114.77
2024-05-09T01:35:37.148Z,114.68
2024-05-09T01:36:37.038Z,114.79
2024-05-09T01:37:37.033Z,115.27
2024-05-09T01:38:37.219Z,114.79
2024-05-09T01:39:37.074Z,114.73
2024-05-09T01:40:39.748Z,114.20
2024-05-09T01:41:37.144Z,114.66
2024-05-09T01:42:37.160Z,114.17
2024-05-09T01:43:37.200Z,114.13
2024-05-09T01:44:37.244Z,113.99
2024-05-09T01:45:37.230Z,113.90
2024-05-09T01:46:37.252Z,113.98
2024-05-09T01:47:37.451Z,113.94
2024-05-09T01:48:37.371Z,113.67
2024-05-09T01:49:37.392Z,113.02
2024-05-09T01:50:40.916Z,114.29
2024-05-09T01:51:38.365Z,114.35
2024-05-09T01:52:37.400Z,114.45
2024-05-09T01:53:37.555Z,114.37
2024-05-09T01:54:37.455Z,114.62
2024-05-09T01:55:37.524Z,114.03
2024-05-09T01:56:37.546Z,114.59
2024-05-09T01:57:37.523Z,114.61
2024-05-09T01:58:37.564Z,114.05
2024-05-09T01:59:37.613Z,114.59
2024-05-09T02:00:41.266Z,113.80
2024-05-09T02:01:55.818Z,113.86
2024-05-09T02:02:38.761Z,113.90
2024-05-09T02:03:37.827Z,114.07
2024-05-09T02:04:37.851Z,114.55
2024-05-09T02:05:37.882Z,114.66
2024-05-09T02:06:37.749Z,113.92
2024-05-09T02:07:37.771Z,114.06
2024-05-09T02:08:37.915Z,114.81
2024-05-09T02:09:37.816Z,114.66
2024-05-09T02:10:37.841Z,114.99
2024-05-09T02:11:37.976Z,115.22
2024-05-09T02:12:37.893Z,113.84
2024-05-09T02:13:37.910Z,114.04
2024-05-09T02:14:37.960Z,113.36
2024-05-09T02:15:37.949Z,113.65
2024-05-09T02:16:37.967Z,113.57
2024-05-09T02:17:38.226Z,113.53
2024-05-09T02:18:38.139Z,114.49
2024-05-09T02:19:38.072Z,112.48
2024-05-09T02:20:38.123Z,112.53
2024-05-09T02:21:38.081Z,112.61
2024-05-09T02:22:38.128Z,112.91
2024-05-09T02:23:38.285Z,112.94
2024-05-09T02:24:38.156Z,112.37
2024-05-09T02:25:38.206Z,112.56
2024-05-09T02:26:38.237Z,112.76
2024-05-09T02:27:38.214Z,112.69
2024-05-09T02:28:38.226Z,112.85
2024-05-09T02:29:38.334Z,112.70
2024-05-09T02:30:41.211Z,112.65
2024-05-09T02:31:38.296Z,112.67
2024-05-09T02:32:38.445Z,112.75
2024-05-09T02:33:38.523Z,112.66
2024-05-09T02:34:38.541Z,113.15
2024-05-09T02:35:38.448Z,112.48
2024-05-09T02:36:38.378Z,111.73
2024-05-09T02:37:38.407Z,112.14
2024-05-09T02:38:38.433Z,111.26
2024-05-09T02:39:38.473Z,112.28
2024-05-09T02:40:39.777Z,112.83
2024-05-09T02:41:38.510Z,112.62
2024-05-09T02:42:38.493Z,112.07
2024-05-09T02:43:38.512Z,111.17
2024-05-09T02:44:38.583Z,112.06
2024-05-09T02:45:38.540Z,112.21
2024-05-09T02:46:38.562Z,110.84
2024-05-09T02:47:38.737Z,112.96
2024-05-09T02:48:38.793Z,111.14
2024-05-09T02:49:38.868Z,111.20
2024-05-09T02:50:40.024Z,110.67
2024-05-09T02:51:38.651Z,110.72
2024-05-09T02:52:38.689Z,110.79
2024-05-09T02:53:38.732Z,111.05
2024-05-09T02:54:38.722Z,111.19
2024-05-09T02:55:38.875Z,111.40
2024-05-09T02:56:38.791Z,111.55
2024-05-09T02:57:38.810Z,110.95
2024-05-09T02:58:38.806Z,110.22
2024-05-09T02:59:38.820Z,110.27
2024-05-09T03:00:41.480Z,110.46
2024-05-09T03:01:38.973Z,110.27
2024-05-09T03:02:38.956Z,110.53
2024-05-09T03:03:39.021Z,110.44
2024-05-09T03:04:38.934Z,111.25
2024-05-09T03:05:39.065Z,109.51
2024-05-09T03:06:38.936Z,111.07
2024-05-09T03:07:38.973Z,110.02
2024-05-09T03:08:39.016Z,110.20
2024-05-09T03:09:38.996Z,110.25
2024-05-09T03:10:39.715Z,110.46
2024-05-09T03:11:39.081Z,110.46
2024-05-09T03:12:39.393Z,110.39
2024-05-09T03:13:39.077Z,108.81
2024-05-09T03:14:39.160Z,110.21
2024-05-09T03:15:39.108Z,110.35
2024-05-09T03:16:39.131Z,110.29
2024-05-09T03:17:39.350Z,109.85
2024-05-09T03:18:39.257Z,110.03
2024-05-09T03:19:39.235Z,109.66
2024-05-09T03:20:39.653Z,109.87
2024-05-09T03:21:39.240Z,109.66
2024-05-09T03:22:39.264Z,108.62
2024-05-09T03:23:39.457Z,109.22
2024-05-09T03:24:39.303Z,109.17
2024-05-09T03:25:39.341Z,108.91
2024-05-09T03:26:39.429Z,108.53
2024-05-09T03:27:39.397Z,109.42
2024-05-09T03:28:39.409Z,107.49
2024-05-09T03:29:39.452Z,108.70
2024-05-09T03:30:42.440Z,109.18
2024-05-09T03:31:39.517Z,109.18
2024-05-09T03:32:39.631Z,107.84
2024-05-09T03:33:39.749Z,108.04
2024-05-09T03:34:39.542Z,108.51
2024-05-09T03:35:39.596Z,108.84
2024-05-09T03:36:39.591Z,107.79
2024-05-09T03:37:39.620Z,108.08
2024-05-09T03:38:39.749Z,107.27
2024-05-09T03:39:39.673Z,107.32
2024-05-09T03:40:39.698Z,107.64
2024-05-09T03:41:39.762Z,107.71
2024-05-09T03:42:39.734Z,108.02
2024-05-09T03:43:39.751Z,107.78
2024-05-09T03:44:39.907Z,107.66
2024-05-09T03:45:39.800Z,108.41
2024-05-09T03:46:39.819Z,107.29
2024-05-09T03:47:40.020Z,108.45
2024-05-09T03:48:39.921Z,107.64
2024-05-09T03:49:39.952Z,106.99
2024-05-09T03:50:39.991Z,107.35
2024-05-09T03:51:39.979Z,107.36
2024-05-09T03:52:39.978Z,107.48
2024-05-09T03:53:40.212Z,107.37
2024-05-09T03:54:40.004Z,107.04
2024-05-09T03:55:40.023Z,107.57
2024-05-09T03:56:40.119Z,106.78
2024-05-09T03:57:40.089Z,107.05
2024-05-09T03:58:40.095Z,107.46
2024-05-09T03:59:40.214Z,106.71
2024-05-09T04:00:40.544Z,107.40
2024-05-09T04:01:40.274Z,106.87
2024-05-09T04:02:40.276Z,106.91
2024-05-09T04:03:40.375Z,106.89
2024-05-09T04:04:40.300Z,106.47
2024-05-09T04:05:41.318Z,106.21
2024-05-09T04:06:40.289Z,106.50
2024-05-09T04:07:40.316Z,106.90
2024-05-09T04:08:40.487Z,107.00
2024-05-09T04:09:40.369Z,105.92
2024-05-09T04:10:40.441Z,106.58
2024-05-09T04:11:40.548Z,106.95
2024-05-09T04:12:40.454Z,106.40
2024-05-09T04:13:40.455Z,106.44
2024-05-09T04:14:40.486Z,106.49
2024-05-09T04:15:40.478Z,106.54
2024-05-09T04:16:40.509Z,107.04
2024-05-09T04:17:40.744Z,106.78
2024-05-09T04:18:40.651Z,106.31
2024-05-09T04:19:40.589Z,106.13
2024-05-09T04:20:41.406Z,105.43
2024-05-09T04:21:40.629Z,106.20
2024-05-09T04:22:40.627Z,105.34
2024-05-09T04:23:47.953Z,50.00
2024-05-09T04:24:47.846Z,50.00
2024-05-09T04:25:47.897Z,50.00
2024-05-09T04:26:47.872Z,50.00
2024-05-09T04:27:47.879Z,50.00
2024-05-09T04:28:47.894Z,50.73
2024-05-09T04:29:47.887Z,51.04
2024-05-09T04:30:47.912Z,51.57
2024-05-09T04:31:55.248Z,50.00
2024-05-09T04:32:55.224Z,50.00
2024-05-09T04:33:55.282Z,50.00
2024-05-09T04:34:55.209Z,50.00
2024-05-09T04:35:55.162Z,50.00
2024-05-09T04:36:55.187Z,51.48
2024-05-09T04:37:55.226Z,50.66
2024-05-09T04:38:55.185Z,51.10
2024-05-09T04:39:55.194Z,50.00
2024-05-09T04:40:55.328Z,50.00
2024-05-09T04:41:55.212Z,50.89
2024-05-09T04:42:55.223Z,50.78
2024-05-09T04:43:55.249Z,51.27
2024-05-09T04:44:58.281Z,51.89
2024-05-09T04:45:55.239Z,51.92
2024-05-09T04:46:55.280Z,50.31
2024-05-09T04:47:55.584Z,49.81
2024-05-09T04:48:55.353Z,51.84
2024-05-09T04:49:55.321Z,49.95
2024-05-09T04:50:55.382Z,53.17
2024-05-09T04:51:55.325Z,51.68
2024-05-09T04:52:55.378Z,51.75
2024-05-09T04:53:55.356Z,51.92
2024-05-09T04:54:56.915Z,52.29
2024-05-09T04:55:55.416Z,52.01
2024-05-09T04:56:55.399Z,50.50
2024-05-09T04:57:55.408Z,50.70
2024-05-09T04:58:55.440Z,50.17
2024-05-09T04:59:55.416Z,50.01
2024-05-09T05:00:55.480Z,52.77
2024-05-09T05:01:55.559Z,54.29
2024-05-09T05:02:55.570Z,50.84
2024-05-09T05:03:56.142Z,52.03
2024-05-09T05:04:55.584Z,53.21
2024-05-09T05:05:55.578Z,53.28
2024-05-09T05:06:56.367Z,53.55
2024-05-09T05:07:55.530Z,51.17
2024-05-09T05:08:55.507Z,52.18
2024-05-09T05:09:55.525Z,53.55
2024-05-09T05:10:55.718Z,53.40
2024-05-09T05:11:55.786Z,52.77
2024-05-09T05:12:55.566Z,52.67
2024-05-09T05:13:55.613Z,53.41
2024-05-09T05:14:55.579Z,50.80
2024-05-09T05:15:56.254Z,51.13
2024-05-09T05:16:55.628Z,52.23
2024-05-09T05:17:55.804Z,50.82
2024-05-09T05:18:55.689Z,50.89
2024-05-09T05:19:55.774Z,51.05
2024-05-09T05:20:55.810Z,49.62
2024-05-09T05:21:55.677Z,53.10
2024-05-09T05:22:55.734Z,50.27
2024-05-09T05:23:55.680Z,53.46
2024-05-09T05:24:55.690Z,51.46
2024-05-09T05:25:55.972Z,52.39
2024-05-09T05:26:55.713Z,51.07
2024-05-09T05:27:55.730Z,52.11
2024-05-09T05:28:55.856Z,53.24
2024-05-09T05:29:55.734Z,54.44
2024-05-09T05:30:55.745Z,53.07
2024-05-09T05:31:55.868Z,51.76
2024-05-09T05:32:56.025Z,51.80
2024-05-09T05:33:55.937Z,50.01
2024-05-09T05:34:55.827Z,53.17
2024-05-09T05:35:55.802Z,52.34
2024-05-09T05:36:55.819Z,50.95
2024-05-09T05:37:55.983Z,55.47
2024-05-09T05:38:55.930Z,50.79
2024-05-09T05:39:55.944Z,51.79
2024-05-09T05:40:56.172Z,51.41
2024-05-09T05:41:56.043Z,51.53
2024-05-09T05:42:56.097Z,53.96
2024-05-09T05:43:56.185Z,50.82
2024-05-09T05:44:56.185Z,53.79
2024-05-09T05:45:56.246Z,50.92
2024-05-09T05:46:56.303Z,52.73
2024-05-09T05:47:56.668Z,52.46
2024-05-09T05:48:56.560Z,53.46
2024-05-09T05:49:56.503Z,51.30
2024-05-09T05:50:56.521Z,51.02
2024-05-09T05:51:56.532Z,53.37
2024-05-09T05:52:56.588Z,52.47
2024-05-09T05:53:56.633Z,52.68
2024-05-09T05:54:56.658Z,52.84
2024-05-09T05:55:56.810Z,52.88
2024-05-09T05:56:56.745Z,50.29
2024-05-09T05:57:56.838Z,51.75
2024-05-09T05:58:56.918Z,53.53
2024-05-09T05:59:56.877Z,53.99
2024-05-09T06:00:56.949Z,53.86
2024-05-09T06:01:56.997Z,53.89
2024-05-09T06:02:57.090Z,55.10
2024-05-09T06:03:57.277Z,53.86
2024-05-09T06:04:57.204Z,54.25
2024-05-09T06:05:57.364Z,52.14
2024-05-09T06:06:57.185Z,52.13
2024-05-09T06:07:57.253Z,51.09
2024-05-09T06:08:57.319Z,52.35
2024-05-09T06:09:57.317Z,51.97
2024-05-09T06:10:57.425Z,51.23
2024-05-09T06:11:57.481Z,51.24
2024-05-09T06:12:57.442Z,52.48
2024-05-09T06:13:57.519Z,55.16
2024-05-09T06:14:57.524Z,51.90
2024-05-09T06:15:57.563Z,53.13
2024-05-09T06:16:58.316Z,51.40
2024-05-09T06:17:57.929Z,51.24
2024-05-09T06:18:57.823Z,50.93
2024-05-09T06:19:57.773Z,53.59
2024-05-09T06:20:57.824Z,54.26
2024-05-09T06:21:57.818Z,51.48
2024-05-09T06:22:57.903Z,53.61
2024-05-09T06:23:57.904Z,52.01
2024-05-09T06:24:57.972Z,52.41
2024-05-09T06:25:58.029Z,51.19
2024-05-09T06:26:58.018Z,50.87
2024-05-09T06:27:58.080Z,51.79
2024-05-09T06:28:58.161Z,52.60
2024-05-09T06:29:58.110Z,52.62
2024-05-09T06:30:58.122Z,52.52
2024-05-09T06:32:00.102Z,53.10
2024-05-09T06:32:58.239Z,53.06
2024-05-09T06:33:58.391Z,51.83
2024-05-09T06:34:58.218Z,53.42
2024-05-09T06:35:58.180Z,51.97
2024-05-09T06:36:58.207Z,51.02
2024-05-09T06:37:58.266Z,51.95
2024-05-09T06:38:58.230Z,50.69
2024-05-09T06:39:58.239Z,50.47
2024-05-09T06:40:58.398Z,50.03
2024-05-09T06:41:58.290Z,50.17
2024-05-09T06:42:58.311Z,50.57
2024-05-09T06:43:58.364Z,50.91
2024-05-09T06:44:58.334Z,51.29
2024-05-09T06:45:58.366Z,50.94
2024-05-09T06:46:59.916Z,50.31
2024-05-09T06:47:58.537Z,51.13
2024-05-09T06:48:58.548Z,52.16
2024-05-09T06:49:58.404Z,52.86
2024-05-09T06:50:58.444Z,51.51
2024-05-09T06:51:58.421Z,51.60
2024-05-09T06:52:58.482Z,51.74
2024-05-09T06:53:58.405Z,51.83
2024-05-09T06:54:58.425Z,51.09
2024-05-09T06:55:58.465Z,49.77
2024-05-09T06:56:58.461Z,50.17
2024-05-09T06:57:58.493Z,50.00
2024-05-09T06:58:58.504Z,51.36
2024-05-09T06:59:58.484Z,51.66
2024-05-09T07:00:58.479Z,50.23
2024-05-09T07:01:58.546Z,50.34
2024-05-09T07:03:00.130Z,52.36
2024-05-09T07:03:58.567Z,52.02
2024-05-09T07:04:58.664Z,51.42
2024-05-09T07:05:58.551Z,51.23
2024-05-09T07:06:58.508Z,50.00
2024-05-09T07:07:58.518Z,51.31
2024-05-09T07:08:58.562Z,53.13
2024-05-09T07:09:58.528Z,54.22
2024-05-09T07:10:58.621Z,51.67
2024-05-09T07:11:58.613Z,51.30
2024-05-09T07:12:58.574Z,51.18
2024-05-09T07:13:58.635Z,53.06
2024-05-09T07:14:58.556Z,52.04
2024-05-09T07:15:58.606Z,52.81
2024-05-09T07:16:58.736Z,51.32
2024-05-09T07:17:58.694Z,52.52
2024-05-09T07:18:58.718Z,51.82
2024-05-09T07:19:58.810Z,51.64
2024-05-09T07:20:58.625Z,52.66
2024-05-09T07:21:58.591Z,52.68
2024-05-09T07:22:58.673Z,52.43
2024-05-09T07:23:58.594Z,53.02
2024-05-09T07:24:58.611Z,52.10
2024-05-09T07:25:58.686Z,50.00
2024-05-09T07:26:58.615Z,50.97
2024-05-09T07:27:58.635Z,53.56
2024-05-09T07:28:58.695Z,53.26
2024-05-09T07:29:58.613Z,52.18
2024-05-09T07:30:58.641Z,53.68
2024-05-09T07:31:58.676Z,51.33
2024-05-09T07:32:58.917Z,51.88
2024-05-09T07:33:58.668Z,52.41
2024-05-09T07:34:58.658Z,54.12
2024-05-09T07:35:58.899Z,50.90
2024-05-09T07:36:58.650Z,54.47
2024-05-09T07:37:58.822Z,54.34
2024-05-09T07:38:58.699Z,51.51
2024-05-09T07:39:58.675Z,53.96
2024-05-09T07:40:58.733Z,53.17
2024-05-09T07:41:58.706Z,53.16
2024-05-09T07:42:58.714Z,52.00
2024-05-09T07:43:58.725Z,52.91
2024-05-09T07:45:14.772Z,54.00
2024-05-09T07:46:23.028Z,54.08
2024-05-09T07:49:44.366Z,54.15
2024-05-09T07:51:47.682Z,54.23
2024-05-09T07:53:22.105Z,54.40
2024-05-09T07:54:00.940Z,54.48
2024-05-09T07:54:58.978Z,54.45
2024-05-09T07:55:58.920Z,55.55
2024-05-09T07:56:58.867Z,56.23
2024-05-09T07:57:58.777Z,58.58
2024-05-09T07:58:58.789Z,59.70
2024-05-09T07:59:58.778Z,58.91
2024-05-09T08:00:58.864Z,55.63
2024-05-09T08:01:58.904Z,53.08
2024-05-09T08:02:58.817Z,55.09
2024-05-09T08:03:59.032Z,54.17
2024-05-09T08:04:58.897Z,52.74
2024-05-09T08:05:58.835Z,54.45
2024-05-09T08:06:58.854Z,52.36
2024-05-09T08:07:58.875Z,52.92
2024-05-09T08:09:02.999Z,52.93
2024-05-09T08:09:59.914Z,53.06
2024-05-09T08:10:58.883Z,53.20
2024-05-09T08:11:58.938Z,53.61
2024-05-09T08:12:58.927Z,53.21
2024-05-09T08:13:58.894Z,54.21
2024-05-09T08:14:58.902Z,52.24
2024-05-09T08:15:58.964Z,56.23
2024-05-09T08:16:58.914Z,53.00
2024-05-09T08:17:59.165Z,53.97
2024-05-09T08:18:58.983Z,54.95
2024-05-09T08:19:58.941Z,53.03
2024-05-09T08:20:58.913Z,49.54
2024-05-09T08:21:59.028Z,53.23
2024-05-09T08:22:58.948Z,51.87
2024-05-09T08:23:58.971Z,53.04
2024-05-09T08:24:58.968Z,53.65
2024-05-09T08:25:58.950Z,52.68
2024-05-09T08:26:58.958Z,53.97
2024-05-09T08:27:59.045Z,54.26
2024-05-09T08:28:58.990Z,54.31
2024-05-09T08:29:59.079Z,53.45
2024-05-09T08:31:00.014Z,52.49
2024-05-09T08:31:59.136Z,52.50
2024-05-09T08:32:59.096Z,51.96
2024-05-09T08:33:59.117Z,52.94
2024-05-09T08:34:59.075Z,52.79
2024-05-09T08:35:59.026Z,53.04
2024-05-09T08:37:03.905Z,52.50
2024-05-09T08:38:00.236Z,52.57
2024-05-09T08:38:59.064Z,52.69
2024-05-09T08:39:59.140Z,52.59
2024-05-09T08:40:59.082Z,52.14
2024-05-09T08:41:59.081Z,53.24
2024-05-09T08:42:59.174Z,52.52
2024-05-09T08:43:59.073Z,52.96
2024-05-09T08:44:59.104Z,51.13
2024-05-09T08:45:59.118Z,53.37
2024-05-09T08:46:59.083Z,53.40
2024-05-09T08:47:59.289Z,50.00
2024-05-09T08:48:59.299Z,54.23
2024-05-09T08:49:59.213Z,54.92
2024-05-09T08:50:59.111Z,54.01
2024-05-09T08:51:59.224Z,53.82
2024-05-09T08:52:59.152Z,50.00
2024-05-09T08:53:59.152Z,53.79
2024-05-09T08:54:59.180Z,53.83
2024-05-09T08:55:59.166Z,52.06
2024-05-09T08:56:59.165Z,50.22
2024-05-09T08:57:59.279Z,53.61
2024-05-09T08:58:59.200Z,53.43
2024-05-09T08:59:59.208Z,52.38
2024-05-09T09:00:59.311Z,51.31
2024-05-09T09:01:59.311Z,50.00
2024-05-09T09:02:59.282Z,52.16
2024-05-09T09:03:59.321Z,52.70
2024-05-09T09:04:59.353Z,54.04
2024-05-09T09:05:59.313Z,51.15
2024-05-09T09:07:00.447Z,52.59
2024-05-09T09:07:59.353Z,53.18
2024-05-09T09:08:59.346Z,52.72
2024-05-09T09:09:59.416Z,52.21
2024-05-09T09:10:59.374Z,53.50
2024-05-09T09:11:59.426Z,53.59
2024-05-09T09:12:59.440Z,53.46
2024-05-09T09:13:59.382Z,53.51
2024-05-09T09:14:59.395Z,51.92
2024-05-09T09:15:59.735Z,54.10
2024-05-09T09:16:59.405Z,53.53
2024-05-09T09:17:59.736Z,53.82
2024-05-09T09:18:59.541Z,53.45
2024-05-09T09:19:59.539Z,54.81
2024-05-09T09:20:59.412Z,53.72
2024-05-09T09:21:59.478Z,53.57
2024-05-09T09:22:59.449Z,54.04
2024-05-09T09:23:59.466Z,53.79
2024-05-09T09:24:59.489Z,54.29
2024-05-09T09:25:59.451Z,50.98
2024-05-09T09:26:59.460Z,52.17
2024-05-09T09:27:59.677Z,50.71
2024-05-09T09:28:59.461Z,51.22
2024-05-09T09:29:59.483Z,52.00
2024-05-09T09:30:59.577Z,52.50
2024-05-09T09:31:59.642Z,50.85
2024-05-09T09:32:59.817Z,53.78
2024-05-09T09:34:00.019Z,52.01
2024-05-09T09:34:59.927Z,52.59
2024-05-09T09:35:59.909Z,50.23
2024-05-09T09:37:00.008Z,52.38
2024-05-09T09:38:00.056Z,54.49
2024-05-09T09:39:00.067Z,54.53
2024-05-09T09:40:00.106Z,53.50
2024-05-09T09:41:00.283Z,54.54
2024-05-09T09:42:00.079Z,54.58
2024-05-09T09:43:00.175Z,54.78
2024-05-09T09:44:00.098Z,54.74
2024-05-09T09:45:04.901Z,52.79
2024-05-09T09:46:01.095Z,54.60
2024-05-09T09:47:00.105Z,54.83
2024-05-09T09:48:00.140Z,54.61
2024-05-09T09:49:00.165Z,54.34
2024-05-09T09:50:00.132Z,52.55
2024-05-09T09:51:00.086Z,53.60
2024-05-09T09:52:00.165Z,53.44
2024-05-09T09:53:00.105Z,55.08
2024-05-09T09:54:00.132Z,51.79
2024-05-09T09:55:00.255Z,54.63
2024-05-09T09:56:00.307Z,55.65
2024-05-09T09:57:00.330Z,54.64
2024-05-09T09:58:00.490Z,52.37
2024-05-09T09:59:00.466Z,53.43
2024-05-09T10:00:00.539Z,54.15
2024-05-09T10:01:00.841Z,53.79
2024-05-09T10:02:00.941Z,51.15
2024-05-09T10:03:01.348Z,53.06
2024-05-09T10:04:00.897Z,51.84
2024-05-09T10:05:00.984Z,53.07
2024-05-09T10:06:01.008Z,52.85
2024-05-09T10:07:01.093Z,53.04
2024-05-09T10:08:01.106Z,52.87
2024-05-09T10:09:01.185Z,54.11
2024-05-09T10:10:01.313Z,52.88
2024-05-09T10:11:01.418Z,54.29
2024-05-09T10:12:01.509Z,54.26
2024-05-09T10:13:01.677Z,52.82
2024-05-09T10:14:01.574Z,54.08
2024-05-09T10:15:01.660Z,53.62
2024-05-09T10:16:01.738Z,51.24
2024-05-09T10:17:01.855Z,53.55
2024-05-09T10:18:02.048Z,51.95
2024-05-09T10:19:01.999Z,50.32
2024-05-09T10:20:02.045Z,53.90
2024-05-09T10:21:02.070Z,53.40
2024-05-09T10:22:02.175Z,51.90
2024-05-09T10:23:02.215Z,53.73
2024-05-09T10:24:02.373Z,53.30
2024-05-09T10:25:04.746Z,54.63
2024-05-09T10:26:02.628Z,52.66
2024-05-09T10:27:02.687Z,51.09
2024-05-09T10:28:02.875Z,57.06
2024-05-09T10:29:02.834Z,51.97
2024-05-09T10:30:06.835Z,52.87
2024-05-09T10:31:03.997Z,52.99
2024-05-09T10:32:02.938Z,53.28
2024-05-09T10:33:03.145Z,53.63
2024-05-09T10:34:03.610Z,54.51
2024-05-09T10:35:03.161Z,54.26
2024-05-09T10:36:02.947Z,55.15
2024-05-09T10:37:04.966Z,53.57
2024-05-09T10:38:02.959Z,56.01
2024-05-09T10:39:03.019Z,54.25
2024-05-09T10:40:05.458Z,53.30
2024-05-09T10:41:03.099Z,53.38
2024-05-09T10:42:03.136Z,53.58
2024-05-09T10:43:05.835Z,53.42
2024-05-09T10:44:03.125Z,53.33
2024-05-09T10:45:03.153Z,53.45
2024-05-09T10:46:03.298Z,53.69
2024-05-09T10:47:03.160Z,53.74
2024-05-09T10:48:03.494Z,54.63
2024-05-09T10:49:07.049Z,53.73
2024-05-09T10:50:06.027Z,53.81
2024-05-09T10:51:03.182Z,53.85
2024-05-09T10:52:03.222Z,54.24
2024-05-09T10:53:03.251Z,54.62
2024-05-09T10:54:03.180Z,54.76
2024-05-09T10:55:05.617Z,53.81
2024-05-09T10:56:03.194Z,53.47
2024-05-09T10:57:03.192Z,54.75
2024-05-09T10:58:03.242Z,54.99
2024-05-09T10:59:03.206Z,53.93
2024-05-09T11:00:04.972Z,53.34
2024-05-09T11:01:06.590Z,53.37
2024-05-09T11:02:03.347Z,53.56
2024-05-09T11:03:03.326Z,53.74
2024-05-09T11:04:03.612Z,53.95
2024-05-09T11:05:03.436Z,54.82
2024-05-09T11:06:03.280Z,54.97
2024-05-09T11:07:05.397Z,54.45
2024-05-09T11:08:03.295Z,54.15
2024-05-09T11:09:03.302Z,55.27
2024-05-09T11:10:03.497Z,53.37
2024-05-09T11:11:03.391Z,52.95
2024-05-09T11:12:03.522Z,53.60
2024-05-09T11:13:03.614Z,51.91
2024-05-09T11:14:03.577Z,52.38
2024-05-09T11:15:03.654Z,52.36
2024-05-09T11:16:03.819Z,53.95
2024-05-09T11:17:03.791Z,53.79
2024-05-09T11:18:03.923Z,52.22
2024-05-09T11:19:04.166Z,52.89
2024-05-09T11:20:10.463Z,51.37
2024-05-09T11:21:04.945Z,51.52
2024-05-09T11:22:03.965Z,51.54
2024-05-09T11:23:03.954Z,52.18
2024-05-09T11:24:05.996Z,51.88
2024-05-09T11:25:04.034Z,52.27
2024-05-09T11:26:04.088Z,53.41
2024-05-09T11:27:03.979Z,51.40
2024-05-09T11:28:04.062Z,51.16
2024-05-09T11:29:03.999Z,52.08
2024-05-09T11:30:05.647Z,51.16
2024-05-09T11:31:04.030Z,52.87
2024-05-09T11:32:04.082Z,52.48
2024-05-09T11:33:04.080Z,52.35
2024-05-09T11:34:04.085Z,54.48
2024-05-09T11:35:04.046Z,51.53
2024-05-09T11:36:04.105Z,50.96
2024-05-09T11:37:04.125Z,51.54
2024-05-09T11:38:04.023Z,51.89
2024-05-09T11:39:04.040Z,52.65
2024-05-09T11:40:06.833Z,50.02
2024-05-09T11:41:05.089Z,50.10
2024-05-09T11:42:04.041Z,50.33
2024-05-09T11:43:04.124Z,50.83
2024-05-09T11:44:04.088Z,50.33
2024-05-09T11:45:04.071Z,50.21
2024-05-09T11:46:04.407Z,50.65
2024-05-09T11:47:04.091Z,50.18
2024-05-09T11:48:04.254Z,51.91
2024-05-09T11:49:04.256Z,51.22
2024-05-09T11:50:07.725Z,53.39
2024-05-09T11:51:04.103Z,51.66
2024-05-09T11:52:04.204Z,50.47
2024-05-09T11:53:04.094Z,51.30
2024-05-09T11:54:04.122Z,51.16
2024-05-09T11:55:04.261Z,52.22
2024-05-09T11:56:04.274Z,51.50
2024-05-09T11:57:04.131Z,53.69
2024-05-09T11:58:04.308Z,51.00
2024-05-09T11:59:04.176Z,52.12
2024-05-09T12:00:05.592Z,52.42
2024-05-09T12:01:04.284Z,52.44
2024-05-09T12:02:04.290Z,52.37
2024-05-09T12:03:04.261Z,52.57
2024-05-09T12:04:04.604Z,52.80
2024-05-09T12:05:04.344Z,51.63
2024-05-09T12:06:04.432Z,53.08
2024-05-09T12:07:04.198Z,51.53
2024-05-09T12:08:04.191Z,51.75
2024-05-09T12:09:04.230Z,51.32
2024-05-09T12:10:06.230Z,52.10
2024-05-09T12:11:04.346Z,52.17
2024-05-09T12:12:04.190Z,52.26
2024-05-09T12:13:06.178Z,52.30
2024-05-09T12:14:04.185Z,52.12
2024-05-09T12:15:04.200Z,52.25
2024-05-09T12:16:04.223Z,51.47
2024-05-09T12:17:04.242Z,52.17
2024-05-09T12:18:04.596Z,51.60
2024-05-09T12:19:04.346Z,50.59
2024-05-09T12:20:07.094Z,51.01
2024-05-09T12:21:04.208Z,51.10
2024-05-09T12:22:04.287Z,51.35
2024-05-09T12:23:04.205Z,51.41
2024-05-09T12:24:04.397Z,51.81
2024-05-09T12:25:04.295Z,52.39
2024-05-09T12:26:04.222Z,50.82
2024-05-09T12:27:04.224Z,51.35
2024-05-09T12:28:04.474Z,51.32
2024-05-09T12:29:04.251Z,50.65
2024-05-09T12:30:04.666Z,51.78
2024-05-09T12:31:04.301Z,51.46
2024-05-09T12:32:04.257Z,52.23
2024-05-09T12:33:04.522Z,51.60
2024-05-09T12:34:04.378Z,50.08
2024-05-09T12:35:04.229Z,50.09
2024-05-09T12:36:04.231Z,50.30
2024-05-09T12:37:04.252Z,50.59
2024-05-09T12:38:04.322Z,50.41
2024-05-09T12:39:04.239Z,49.58
2024-05-09T12:40:06.700Z,50.62
2024-05-09T12:41:04.343Z,50.71
2024-05-09T12:42:04.243Z,50.78
2024-05-09T12:43:04.624Z,50.86
2024-05-09T12:44:04.246Z,50.44
2024-05-09T12:45:04.258Z,50.90
2024-05-09T12:46:04.452Z,50.17
2024-05-09T12:47:04.245Z,51.15
2024-05-09T12:48:04.477Z,51.35
2024-05-09T12:49:04.611Z,50.94